Time,TemperatureF,DewpointF,PressureIn,WindDirection,WindDirectionDegrees,WindSpeedMPH,WindSpeedGustMPH,Humidity,HourlyPrecipIn,Conditions,Clouds,dailyrainin,SoftwareType,DateUTC
2013-05-21 00:02:00,69.0,56.0,-100.00,SE,135,7.0,12.0,63,-99.99,,,-99.99,,2013-05-21 05:02:00,
2013-05-21 00:12:00,69.0,56.0,-100.00,SE,135,7.0,12.0,63,-99.99,,,-99.99,,2013-05-21 05:12:00,
2013-05-21 00:22:00,69.0,56.0,-100.00,SE,135,7.0,12.0,63,-99.99,,,-99.99,,2013-05-21 05:22:00,
2013-05-21 00:42:00,69.0,54.0,-100.00,SSE,155,5.0,9.0,60,-99.99,,,-99.99,,2013-05-21 05:42:00,
2013-05-21 00:52:00,69.0,54.0,-100.00,SSE,155,5.0,9.0,60,-99.99,,,-99.99,,2013-05-21 05:52:00,
2013-05-21 01:02:00,69.0,54.0,-100.00,SSE,155,5.0,9.0,60,-99.99,,,-99.99,,2013-05-21 06:02:00,
2013-05-21 01:12:00,69.0,54.0,-100.00,SSE,155,5.0,9.0,60,-99.99,,,-99.99,,2013-05-21 06:12:00,
2013-05-21 01:21:00,69.0,54.0,-100.00,SSE,155,5.0,9.0,60,-99.99,,,-99.99,,2013-05-21 06:21:00,
2013-05-21 01:42:00,67.0,53.0,-100.00,South,170,4.0,27.0,59,-99.99,,,-99.99,,2013-05-21 06:42:00,
2013-05-21 01:52:00,67.0,53.0,-100.00,South,170,4.0,27.0,59,-99.99,,,-99.99,,2013-05-21 06:52:00,
2013-05-21 02:01:00,67.0,53.0,-100.00,South,170,4.0,27.0,59,-99.99,,,-99.99,,2013-05-21 07:01:00,
2013-05-21 02:11:00,67.0,53.0,-100.00,South,170,4.0,27.0,59,-99.99,,,-99.99,,2013-05-21 07:11:00,
2013-05-21 02:22:00,67.0,53.0,-100.00,South,170,4.0,27.0,59,-99.99,,,-99.99,,2013-05-21 07:22:00,
2013-05-21 02:52:00,66.0,53.0,-100.00,SSE,155,4.0,13.0,64,-99.99,,,-99.99,,2013-05-21 07:52:00,
2013-05-21 03:02:00,66.0,53.0,-100.00,SSE,155,4.0,13.0,64,-99.99,,,-99.99,,2013-05-21 08:02:00,
2013-05-21 03:11:00,66.0,53.0,-100.00,SSE,155,4.0,13.0,64,-99.99,,,-99.99,,2013-05-21 08:11:00,
2013-05-21 03:21:00,66.0,53.0,-100.00,SSE,155,4.0,13.0,64,-99.99,,,-99.99,,2013-05-21 08:21:00,
2013-05-21 03:52:00,63.0,53.0,-100.00,SE,140,3.0,6.0,70,-99.99,,,-99.99,,2013-05-21 08:52:00,
2013-05-21 04:01:00,63.0,53.0,-100.00,SE,140,3.0,6.0,70,-99.99,,,-99.99,,2013-05-21 09:01:00,
2013-05-21 04:11:00,63.0,53.0,-100.00,SE,140,3.0,6.0,70,-99.99,,,-99.99,,2013-05-21 09:11:00,
2013-05-21 04:21:00,63.0,53.0,-100.00,SE,140,3.0,6.0,70,-99.99,,,-99.99,,2013-05-21 09:21:00,
2013-05-21 04:42:00,62.0,55.0,-100.00,SSE,150,4.0,7.0,76,-99.99,,,-99.99,,2013-05-21 09:42:00,
2013-05-21 04:53:00,62.0,55.0,-100.00,SSE,150,4.0,7.0,76,-99.99,,,-99.99,,2013-05-21 09:53:00,
2013-05-21 05:02:00,62.0,55.0,-100.00,SSE,150,4.0,7.0,76,-99.99,,,-99.99,,2013-05-21 10:02:00,
2013-05-21 05:12:00,62.0,55.0,-100.00,SSE,150,4.0,7.0,76,-99.99,,,-99.99,,2013-05-21 10:12:00,
2013-05-21 05:22:00,62.0,55.0,-100.00,SSE,150,4.0,7.0,76,-99.99,,,-99.99,,2013-05-21 10:22:00,
2013-05-21 05:52:00,63.0,56.0,-100.00,SSE,165,4.0,10.0,80,-99.99,,,-99.99,,2013-05-21 10:52:00,
2013-05-21 06:02:00,63.0,56.0,-100.00,SSE,165,4.0,10.0,80,-99.99,,,-99.99,,2013-05-21 11:02:00,
2013-05-21 06:12:00,63.0,56.0,-100.00,SSE,165,4.0,10.0,80,-99.99,,,-99.99,,2013-05-21 11:12:00,
2013-05-21 06:21:00,63.0,56.0,-100.00,SSE,165,4.0,10.0,80,-99.99,,,-99.99,,2013-05-21 11:21:00,
2013-05-21 06:42:00,61.0,56.0,-100.00,SSE,155,4.0,9.0,85,-99.99,,,-99.99,,2013-05-21 11:42:00,
2013-05-21 06:52:00,61.0,56.0,-100.00,SSE,155,4.0,9.0,85,-99.99,,,-99.99,,2013-05-21 11:52:00,
2013-05-21 07:01:00,61.0,56.0,-100.00,SSE,155,4.0,9.0,85,-99.99,,,-99.99,,2013-05-21 12:01:00,
2013-05-21 07:11:00,61.0,56.0,-100.00,SSE,155,4.0,9.0,85,-99.99,,,-99.99,,2013-05-21 12:11:00,
2013-05-21 07:21:00,61.0,56.0,-100.00,SSE,155,4.0,9.0,85,-99.99,,,-99.99,,2013-05-21 12:21:00,
2013-05-21 07:52:00,63.0,57.0,-100.00,SSE,160,4.0,12.0,81,-99.99,,,-99.99,,2013-05-21 12:52:00,
2013-05-21 08:01:00,63.0,57.0,-100.00,SSE,160,4.0,12.0,81,-99.99,,,-99.99,,2013-05-21 13:01:00,
2013-05-21 08:12:00,63.0,57.0,-100.00,SSE,160,4.0,12.0,81,-99.99,,,-99.99,,2013-05-21 13:12:00,
2013-05-21 08:22:00,63.0,57.0,-100.00,SSE,160,4.0,12.0,81,-99.99,,,-99.99,,2013-05-21 13:22:00,
2013-05-21 08:52:00,64.0,57.0,-100.00,SSE,160,7.0,13.0,78,-99.99,,,-99.99,,2013-05-21 13:52:00,
2013-05-21 09:01:00,64.0,57.0,-100.00,SSE,160,7.0,13.0,78,-99.99,,,-99.99,,2013-05-21 14:01:00,
2013-05-21 09:11:00,64.0,57.0,-100.00,SSE,160,7.0,13.0,78,-99.99,,,-99.99,,2013-05-21 14:11:00,
2013-05-21 09:21:00,64.0,57.0,-100.00,SSE,160,7.0,13.0,78,-99.99,,,-99.99,,2013-05-21 14:21:00,
2013-05-21 09:52:00,66.0,57.0,-100.00,SSE,160,7.0,16.0,73,-99.99,,,-99.99,,2013-05-21 14:52:00,
2013-05-21 10:01:00,66.0,57.0,-100.00,SSE,160,7.0,16.0,73,-99.99,,,-99.99,,2013-05-21 15:01:00,
2013-05-21 10:11:00,66.0,57.0,-100.00,SSE,160,7.0,16.0,73,-99.99,,,-99.99,,2013-05-21 15:11:00,
2013-05-21 10:21:00,66.0,57.0,-100.00,SSE,160,7.0,16.0,73,-99.99,,,-99.99,,2013-05-21 15:21:00,
2013-05-21 11:42:00,72.0,53.0,-100.00,South,190,6.0,16.0,53,-99.99,,,-99.99,,2013-05-21 16:42:00,
2013-05-21 11:53:00,72.0,53.0,-100.00,South,190,6.0,16.0,53,-99.99,,,-99.99,,2013-05-21 16:53:00,
2013-05-21 12:02:00,72.0,53.0,-100.00,South,190,6.0,16.0,53,-99.99,,,-99.99,,2013-05-21 17:02:00,
2013-05-21 12:12:00,72.0,53.0,-100.00,South,190,6.0,16.0,53,-99.99,,,-99.99,,2013-05-21 17:12:00,
2013-05-21 12:23:00,72.0,53.0,-100.00,South,190,6.0,16.0,53,-99.99,,,-99.99,,2013-05-21 17:23:00,
2013-05-21 12:44:00,72.0,52.0,-100.00,South,175,6.0,17.0,49,-99.99,,,-99.99,,2013-05-21 17:44:00,
2013-05-21 12:52:00,72.0,52.0,-100.00,South,175,6.0,17.0,49,-99.99,,,-99.99,,2013-05-21 17:52:00,
2013-05-21 13:02:00,72.0,52.0,-100.00,South,175,6.0,17.0,49,-99.99,,,-99.99,,2013-05-21 18:02:00,
2013-05-21 13:12:00,72.0,52.0,-100.00,South,175,6.0,17.0,49,-99.99,,,-99.99,,2013-05-21 18:12:00,
2013-05-21 13:22:00,72.0,52.0,-100.00,South,175,6.0,17.0,49,-99.99,,,-99.99,,2013-05-21 18:22:00,
2013-05-21 13:42:00,73.0,53.0,-100.00,SE,140,3.0,16.0,49,-99.99,,,-99.99,,2013-05-21 18:42:00,
2013-05-21 13:52:00,73.0,53.0,-100.00,SE,140,3.0,16.0,49,-99.99,,,-99.99,,2013-05-21 18:52:00,
2013-05-21 14:01:00,73.0,53.0,-100.00,SE,140,3.0,16.0,49,-99.99,,,-99.99,,2013-05-21 19:01:00,
2013-05-21 14:11:00,73.0,53.0,-100.00,SE,140,3.0,16.0,49,-99.99,,,-99.99,,2013-05-21 19:11:00,
2013-05-21 14:21:00,73.0,53.0,-100.00,SE,140,3.0,16.0,49,-99.99,,,-99.99,,2013-05-21 19:21:00,
2013-05-21 14:42:00,74.0,52.0,-100.00,North,-999,-999.0,-999.0,47,-99.99,,,-99.99,,2013-05-21 19:42:00,
2013-05-21 14:52:00,73.0,53.0,-100.00,SSE,160,3.0,16.0,48,-99.99,,,-99.99,,2013-05-21 19:52:00,
2013-05-21 15:03:00,73.0,53.0,-100.00,SSE,160,3.0,16.0,48,-99.99,,,-99.99,,2013-05-21 20:03:00,
2013-05-21 15:11:00,73.0,53.0,-100.00,SSE,160,3.0,16.0,48,-99.99,,,-99.99,,2013-05-21 20:11:00,
2013-05-21 15:22:00,73.0,53.0,-100.00,SSE,160,3.0,16.0,48,-99.99,,,-99.99,,2013-05-21 20:22:00,
2013-05-21 15:42:00,73.0,52.0,-100.00,West,270,4.0,14.0,48,-99.99,,,-99.99,,2013-05-21 20:42:00,
2013-05-21 15:52:00,73.0,52.0,-100.00,West,270,4.0,14.0,48,-99.99,,,-99.99,,2013-05-21 20:52:00,
2013-05-21 16:02:00,73.0,52.0,-100.00,West,270,4.0,14.0,48,-99.99,,,-99.99,,2013-05-21 21:02:00,
2013-05-21 16:11:00,73.0,52.0,-100.00,West,270,4.0,14.0,48,-99.99,,,-99.99,,2013-05-21 21:11:00,
2013-05-21 16:21:00,73.0,52.0,-100.00,West,270,4.0,14.0,48,-99.99,,,-99.99,,2013-05-21 21:21:00,
2013-05-21 16:43:00,71.0,51.0,-100.00,SSW,205,4.0,14.0,49,-99.99,,,-99.99,,2013-05-21 21:43:00,
2013-05-21 16:54:00,71.0,51.0,-100.00,SSW,205,4.0,14.0,49,-99.99,,,-99.99,,2013-05-21 21:54:00,
2013-05-21 17:02:00,71.0,51.0,-100.00,SSW,205,4.0,14.0,49,-99.99,,,-99.99,,2013-05-21 22:02:00,
2013-05-21 17:12:00,71.0,51.0,-100.00,SSW,205,4.0,14.0,49,-99.99,,,-99.99,,2013-05-21 22:12:00,
2013-05-21 17:22:00,71.0,51.0,-100.00,SSW,205,4.0,14.0,49,-99.99,,,-99.99,,2013-05-21 22:22:00,
2013-05-21 17:42:00,72.0,51.0,-100.00,SW,235,3.0,13.0,48,-99.99,,,-99.99,,2013-05-21 22:42:00,
2013-05-21 17:53:00,72.0,51.0,-100.00,SW,235,3.0,13.0,48,-99.99,,,-99.99,,2013-05-21 22:53:00,
2013-05-21 18:02:00,72.0,51.0,-100.00,SW,235,3.0,13.0,48,-99.99,,,-99.99,,2013-05-21 23:02:00,
2013-05-21 18:12:00,72.0,51.0,-100.00,SW,235,3.0,13.0,48,-99.99,,,-99.99,,2013-05-21 23:12:00,
2013-05-21 18:22:00,72.0,51.0,-100.00,SW,235,3.0,13.0,48,-99.99,,,-99.99,,2013-05-21 23:22:00,
2013-05-21 18:42:00,72.0,50.0,-100.00,SW,235,4.0,9.0,46,-99.99,,,-99.99,,2013-05-21 23:42:00,
2013-05-21 18:52:00,72.0,50.0,-100.00,SW,235,4.0,9.0,46,-99.99,,,-99.99,,2013-05-21 23:52:00,
2013-05-21 19:01:00,72.0,50.0,-100.00,SW,235,4.0,9.0,46,-99.99,,,-99.99,,2013-05-22 00:01:00,
2013-05-21 19:11:00,72.0,50.0,-100.00,SW,235,4.0,9.0,46,-99.99,,,-99.99,,2013-05-22 00:11:00,
2013-05-21 19:21:00,72.0,50.0,-100.00,SW,235,4.0,9.0,46,-99.99,,,-99.99,,2013-05-22 00:21:00,
2013-05-21 19:52:00,69.0,50.0,-100.00,West,265,3.0,6.0,52,-99.99,,,-99.99,,2013-05-22 00:52:00,
2013-05-21 20:01:00,69.0,50.0,-100.00,West,265,3.0,6.0,52,-99.99,,,-99.99,,2013-05-22 01:01:00,
2013-05-21 20:11:00,69.0,50.0,-100.00,West,265,3.0,6.0,52,-99.99,,,-99.99,,2013-05-22 01:11:00,
2013-05-21 20:21:00,69.0,50.0,-100.00,West,265,3.0,6.0,52,-99.99,,,-99.99,,2013-05-22 01:21:00,
2013-05-21 20:42:00,65.0,51.0,-100.00,NW,320,1.0,2.0,62,-99.99,,,-99.99,,2013-05-22 01:42:00,
2013-05-21 20:52:00,65.0,51.0,-100.00,NW,320,1.0,2.0,62,-99.99,,,-99.99,,2013-05-22 01:52:00,
2013-05-21 21:01:00,65.0,51.0,-100.00,NW,320,1.0,2.0,62,-99.99,,,-99.99,,2013-05-22 02:01:00,
2013-05-21 21:11:00,65.0,51.0,-100.00,NW,320,1.0,2.0,62,-99.99,,,-99.99,,2013-05-22 02:11:00,
2013-05-21 21:21:00,65.0,51.0,-100.00,NW,320,1.0,2.0,62,-99.99,,,-99.99,,2013-05-22 02:21:00,
2013-05-21 21:42:00,61.0,54.0,-100.00,NW,310,0.0,4.0,77,-99.99,,,-99.99,,2013-05-22 02:42:00,
2013-05-21 21:52:00,61.0,54.0,-100.00,NW,310,0.0,4.0,77,-99.99,,,-99.99,,2013-05-22 02:52:00,
2013-05-21 22:01:00,61.0,54.0,-100.00,NW,310,0.0,4.0,77,-99.99,,,-99.99,,2013-05-22 03:01:00,
2013-05-21 22:11:00,61.0,54.0,-100.00,NW,310,0.0,4.0,77,-99.99,,,-99.99,,2013-05-22 03:11:00,
2013-05-21 22:21:00,61.0,54.0,-100.00,NW,310,0.0,4.0,77,-99.99,,,-99.99,,2013-05-22 03:21:00,
2013-05-21 22:53:00,58.0,53.0,-100.00,NW,320,0.0,1.0,83,-99.99,,,-99.99,,2013-05-22 03:53:00,
2013-05-21 23:03:00,58.0,53.0,-100.00,NW,320,0.0,1.0,83,-99.99,,,-99.99,,2013-05-22 04:03:00,
2013-05-21 23:13:00,58.0,53.0,-100.00,NW,320,0.0,1.0,83,-99.99,,,-99.99,,2013-05-22 04:13:00,
2013-05-21 23:23:00,58.0,53.0,-100.00,NW,320,0.0,1.0,83,-99.99,,,-99.99,,2013-05-22 04:23:00,
2013-05-21 23:53:00,57.0,53.0,-100.00,WNW,295,1.0,2.0,85,-99.99,,,-99.99,,2013-05-22 04:53:00,